createdAt,value
2019-02-04T00:02:55.279Z,72.51
2019-02-04T00:07:58.669Z,72.78
2019-02-04T00:13:02.084Z,72.02
2019-02-04T00:18:05.854Z,72.01
2019-02-04T00:23:10.257Z,72.66
2019-02-04T00:28:13.752Z,72.80
2019-02-04T00:33:17.136Z,72.75
2019-02-04T00:38:20.613Z,72.65
2019-02-04T00:43:24.119Z,72.88
2019-02-04T00:48:27.551Z,72.56
2019-02-04T00:53:30.996Z,72.82
2019-02-04T00:58:34.460Z,72.84
2019-02-04T01:03:37.928Z,72.46
2019-02-04T01:08:41.396Z,72.43
2019-02-04T01:13:44.769Z,72.36
2019-02-04T01:18:48.224Z,72.59
2019-02-04T01:23:51.720Z,73.00
2019-02-04T01:28:55.149Z,72.91
2019-02-04T01:33:58.655Z,72.85
2019-02-04T01:39:02.059Z,72.48
2019-02-04T01:44:05.864Z,72.44
2019-02-04T01:49:09.673Z,72.66
2019-02-04T01:54:13.059Z,72.47
2019-02-04T01:59:16.431Z,72.28
2019-02-04T02:04:19.869Z,72.53
2019-02-04T02:09:24.940Z,72.58
2019-02-04T02:14:28.484Z,72.52
2019-02-04T02:19:31.884Z,72.21
2019-02-04T02:24:35.344Z,72.44
2019-02-04T02:29:38.712Z,71.53
2019-02-04T02:34:42.175Z,71.94
2019-02-04T02:39:45.624Z,72.30
2019-02-04T02:44:49.075Z,72.48
2019-02-04T02:49:52.440Z,72.52
2019-02-04T02:54:55.876Z,72.45
2019-02-04T02:59:59.342Z,72.50
2019-02-04T03:05:03.917Z,72.43
2019-02-04T03:10:09.294Z,72.65
2019-02-04T03:15:12.804Z,72.70
2019-02-04T03:20:16.209Z,72.87
2019-02-04T03:25:19.911Z,72.58
2019-02-04T03:30:25.506Z,72.84
2019-02-04T03:35:28.895Z,71.88
2019-02-04T03:40:32.962Z,71.87
2019-02-04T03:45:36.372Z,71.64
2019-02-04T03:50:39.877Z,71.77
2019-02-04T03:55:43.280Z,71.41
2019-02-04T04:00:46.895Z,71.61
2019-02-04T04:05:50.271Z,71.90
2019-02-04T04:10:53.764Z,71.37
2019-02-04T04:15:57.311Z,71.72
2019-02-04T04:21:00.774Z,71.41
2019-02-04T04:26:04.152Z,71.39
2019-02-04T04:31:07.723Z,70.93
2019-02-04T04:36:11.099Z,70.91
2019-02-04T04:41:14.619Z,72.08
2019-02-04T04:46:17.981Z,72.60
2019-02-04T04:51:21.478Z,71.79
2019-02-04T04:56:24.845Z,71.99
2019-02-04T05:01:28.220Z,70.92
2019-02-04T05:06:31.634Z,70.82
2019-02-04T05:11:35.036Z,69.94
2019-02-04T05:16:38.462Z,69.93
2019-02-04T05:21:41.915Z,70.17
2019-02-04T05:26:45.291Z,70.69
2019-02-04T05:31:48.775Z,71.51
2019-02-04T05:36:52.155Z,71.50
2019-02-04T05:41:55.590Z,71.98
2019-02-04T05:46:59.087Z,71.82
2019-02-04T05:52:02.507Z,71.79
2019-02-04T05:57:05.973Z,70.68
2019-02-04T06:02:09.619Z,71.25
2019-02-04T06:07:15.398Z,71.68
2019-02-04T06:12:17.528Z,72.28
2019-02-04T06:17:20.920Z,71.28
2019-02-04T06:22:24.430Z,72.56
2019-02-04T06:27:27.940Z,72.40
2019-02-04T06:32:31.354Z,73.00
2019-02-04T06:37:34.777Z,71.17
2019-02-04T06:42:38.181Z,72.27
2019-02-04T06:47:41.595Z,71.53
2019-02-04T06:52:45.000Z,72.06
2019-02-04T06:57:48.436Z,72.21
2019-02-04T07:02:51.816Z,72.19
2019-02-04T07:07:55.245Z,72.67
2019-02-04T07:12:58.706Z,72.98
2019-02-04T07:18:02.259Z,72.92
2019-02-04T07:23:05.561Z,72.69
2019-02-04T07:28:08.955Z,73.51
2019-02-04T07:33:12.367Z,72.86
2019-02-04T07:38:15.800Z,73.16
2019-02-04T07:43:19.258Z,73.12
2019-02-04T07:48:22.751Z,73.51
2019-02-04T07:53:26.117Z,73.72
2019-02-04T07:58:29.547Z,73.92
2019-02-04T08:03:32.916Z,73.21
2019-02-04T08:08:36.306Z,73.42
2019-02-04T08:13:39.732Z,73.36
2019-02-04T08:18:43.111Z,73.42
2019-02-04T08:23:46.497Z,72.94
2019-02-04T08:28:49.968Z,72.50
2019-02-04T08:33:53.367Z,72.90
2019-02-04T08:38:56.786Z,72.36
2019-02-04T08:44:00.236Z,72.68
2019-02-04T08:49:03.622Z,72.98
2019-02-04T08:54:07.027Z,72.15
2019-02-04T08:59:10.398Z,72.16
2019-02-04T09:04:13.789Z,71.93
2019-02-04T09:09:17.255Z,72.74
2019-02-04T09:14:20.668Z,71.33
2019-02-04T09:19:24.077Z,70.85
2019-02-04T09:24:27.634Z,70.81
2019-02-04T09:29:31.066Z,70.90
2019-02-04T09:34:34.541Z,70.99
2019-02-04T09:39:37.945Z,70.86
2019-02-04T09:44:41.356Z,70.38
2019-02-04T09:49:44.796Z,69.99
2019-02-04T09:54:48.233Z,70.56
2019-02-04T09:59:51.771Z,70.47
2019-02-04T10:04:55.225Z,70.95
2019-02-04T10:09:59.129Z,70.66
2019-02-04T10:15:02.355Z,68.93
2019-02-04T10:20:06.483Z,68.23
2019-02-04T10:25:10.715Z,68.96
2019-02-04T10:30:16.566Z,68.18
2019-02-04T10:35:20.394Z,67.97
2019-02-04T10:40:27.565Z,67.69
2019-02-04T10:45:30.967Z,67.67
2019-02-04T10:50:45.592Z,68.07
2019-02-04T10:55:39.746Z,66.51
2019-02-04T11:00:43.339Z,66.46
2019-02-04T11:05:46.721Z,67.04
2019-02-04T11:10:50.161Z,65.62
2019-02-04T11:15:53.568Z,66.35
2019-02-04T11:20:58.382Z,65.82
2019-02-04T11:26:00.542Z,65.10
2019-02-04T11:31:06.681Z,65.05
2019-02-04T11:36:10.110Z,64.73
2019-02-04T11:41:13.527Z,65.11
2019-02-04T11:46:17.106Z,64.75
2019-02-04T11:51:20.673Z,65.38
2019-02-04T11:56:24.091Z,65.22
2019-02-04T12:01:27.483Z,64.63
2019-02-04T12:06:30.888Z,64.57
2019-02-04T12:11:34.424Z,63.00
2019-02-04T12:16:37.839Z,65.50
2019-02-04T12:21:41.337Z,66.56
2019-02-04T12:26:44.689Z,62.84
2019-02-04T12:31:48.062Z,62.88
2019-02-04T12:36:51.593Z,64.22
2019-02-04T12:41:55.067Z,63.47
2019-02-04T12:46:58.618Z,64.44
2019-02-04T12:52:02.015Z,64.07
2019-02-04T12:57:05.482Z,62.77
2019-02-04T13:02:08.859Z,63.87
2019-02-04T13:07:12.373Z,64.64
2019-02-04T13:12:15.803Z,62.98
2019-02-04T13:17:19.366Z,62.06
2019-02-04T13:22:23.141Z,64.05
2019-02-04T13:27:26.655Z,62.17
2019-02-04T13:32:30.130Z,62.25
2019-02-04T13:37:33.708Z,60.72
2019-02-04T13:42:37.227Z,62.42
2019-02-04T13:47:40.946Z,63.91
2019-02-04T13:52:44.476Z,59.65
2019-02-04T13:57:47.954Z,62.16
2019-02-04T14:02:58.994Z,62.31
2019-02-04T14:07:55.307Z,64.78
2019-02-04T14:12:58.902Z,64.26
2019-02-04T14:18:02.470Z,64.85
2019-02-04T14:23:06.179Z,64.67
2019-02-04T14:28:09.927Z,65.91
2019-02-04T14:33:13.755Z,64.05
2019-02-04T14:38:17.533Z,65.73
2019-02-04T14:43:25.048Z,65.06
2019-02-04T14:48:46.520Z,63.56
2019-02-04T14:56:21.254Z,64.16
2019-02-04T15:01:42.420Z,63.54
2019-02-04T15:09:05.361Z,63.14
2019-02-04T15:16:21.007Z,64.97
2019-02-04T15:21:35.557Z,65.08
2019-02-04T15:28:50.995Z,65.66
2019-02-04T15:34:37.268Z,65.22
2019-02-04T15:40:21.382Z,64.87
2019-02-04T15:47:36.073Z,65.46
2019-02-04T15:52:45.709Z,66.44
2019-02-04T15:57:43.355Z,65.89
2019-02-04T16:02:47.054Z,66.41
2019-02-04T16:07:50.550Z,66.46
2019-02-04T16:12:54.219Z,66.79
2019-02-04T16:17:57.737Z,66.60
2019-02-04T16:23:01.338Z,67.65
2019-02-04T16:28:05.005Z,68.21
2019-02-04T16:33:08.527Z,68.31
2019-02-04T16:38:12.272Z,67.68
2019-02-04T16:43:15.806Z,69.05
2019-02-04T16:48:19.304Z,69.07
2019-02-04T16:53:23.194Z,68.85
2019-02-04T16:58:26.708Z,69.07
2019-02-04T17:03:30.347Z,69.36
2019-02-04T17:08:33.904Z,69.07
2019-02-04T17:13:37.580Z,69.39
2019-02-04T17:18:41.232Z,70.35
2019-02-04T17:23:44.863Z,70.12
2019-02-04T17:28:48.654Z,70.15
2019-02-04T17:33:52.285Z,70.80
2019-02-04T17:38:55.858Z,71.10
2019-02-04T17:43:59.990Z,69.63
2019-02-04T17:49:03.497Z,69.00
2019-02-04T17:54:07.096Z,70.05
2019-02-04T17:59:10.780Z,69.35
2019-02-04T18:04:14.335Z,70.32
2019-02-04T18:09:18.480Z,71.30
2019-02-04T18:14:21.995Z,71.22
2019-02-04T18:19:25.648Z,70.37
2019-02-04T18:24:29.529Z,71.31
2019-02-04T18:29:33.229Z,70.66
2019-02-04T18:34:36.888Z,71.03
2019-02-04T18:39:40.583Z,71.03
2019-02-04T18:44:44.105Z,70.39
2019-02-04T18:49:47.865Z,71.73
2019-02-04T18:54:51.636Z,70.88
2019-02-04T18:59:55.210Z,70.44
2019-02-04T19:04:58.805Z,70.56
2019-02-04T19:10:02.588Z,70.04
2019-02-04T19:15:08.373Z,70.32
2019-02-04T19:20:13.840Z,70.67
2019-02-04T19:25:17.814Z,70.37
2019-02-04T19:30:25.375Z,70.14
2019-02-04T19:35:28.964Z,70.56
2019-02-04T19:40:32.498Z,70.86
2019-02-04T19:45:36.707Z,70.95
2019-02-04T19:50:41.709Z,70.68
2019-02-04T19:55:46.050Z,70.93
2019-02-04T20:00:50.133Z,70.99
2019-02-04T20:05:54.456Z,71.64
2019-02-04T20:10:58.376Z,70.99
2019-02-04T20:16:02.188Z,72.26
2019-02-04T20:21:06.478Z,71.15
2019-02-04T20:26:10.469Z,72.22
2019-02-04T20:31:14.223Z,72.14
2019-02-04T20:36:17.801Z,72.24
2019-02-04T20:41:21.565Z,73.01
2019-02-04T20:46:25.153Z,73.02
2019-02-04T20:51:28.733Z,73.51
2019-02-04T20:56:33.982Z,73.17
2019-02-04T21:01:37.096Z,73.11
2019-02-04T21:06:40.950Z,73.13
2019-02-04T21:11:44.637Z,72.98
2019-02-04T21:16:48.604Z,73.19
2019-02-04T21:21:52.292Z,73.31
2019-02-04T21:26:56.177Z,73.02
2019-02-04T21:32:00.012Z,72.30
2019-02-04T21:37:03.771Z,73.18
2019-02-04T21:42:07.759Z,73.17
2019-02-04T21:47:11.437Z,73.19
2019-02-04T21:52:15.415Z,73.03
2019-02-04T21:57:19.402Z,73.45
2019-02-04T22:02:24.496Z,73.00
2019-02-04T22:07:28.367Z,73.13
2019-02-04T22:12:32.148Z,73.18
2019-02-04T22:17:36.221Z,73.26
2019-02-04T22:22:40.100Z,73.23
2019-02-04T22:27:44.197Z,72.74
2019-02-04T22:32:48.146Z,73.06
2019-02-04T22:37:51.949Z,73.23
2019-02-04T22:42:57.375Z,72.94
2019-02-04T22:48:01.218Z,73.42
2019-02-04T22:53:04.953Z,73.69
2019-02-04T22:58:08.537Z,73.38
2019-02-04T23:03:12.673Z,74.23
2019-02-04T23:08:16.241Z,74.65
2019-02-04T23:13:19.745Z,74.93
2019-02-04T23:18:23.462Z,74.33
2019-02-04T23:23:27.089Z,74.03
2019-02-04T23:28:30.832Z,74.03
2019-02-04T23:33:34.625Z,74.12
2019-02-04T23:38:38.317Z,72.61
2019-02-04T23:43:41.944Z,73.00
2019-02-04T23:48:45.340Z,73.05
2019-02-04T23:53:48.947Z,72.79
2019-02-04T23:58:52.483Z,72.28
